createdAt,value
2022-09-11T00:00:30.764Z,30.50
2022-09-11T00:01:30.775Z,24.60
2022-09-11T00:02:30.818Z,30.00
2022-09-11T00:03:30.729Z,33.00
2022-09-11T00:04:30.759Z,34.30
2022-09-11T00:05:30.705Z,44.50
2022-09-11T00:06:30.785Z,38.70
2022-09-11T00:07:30.673Z,40.90
2022-09-11T00:08:30.665Z,48.40
2022-09-11T00:09:30.654Z,46.80
2022-09-11T00:10:30.637Z,42.40
2022-09-11T00:11:30.614Z,45.90
2022-09-11T00:12:30.618Z,43.20
2022-09-11T00:13:30.621Z,30.50
2022-09-11T00:14:30.570Z,30.90
2022-09-11T00:15:30.566Z,28.70
2022-09-11T00:16:30.597Z,26.70
2022-09-11T00:17:30.567Z,23.80
2022-09-11T00:18:30.523Z,28.10
2022-09-11T00:19:30.526Z,24.90
2022-09-11T00:20:30.507Z,29.40
2022-09-11T00:21:30.501Z,27.20
2022-09-11T00:22:30.471Z,30.00
2022-09-11T00:23:30.458Z,26.40
2022-09-11T00:24:30.464Z,24.30
2022-09-11T00:25:30.428Z,23.90
2022-09-11T00:26:30.422Z,25.70
2022-09-11T00:27:30.464Z,27.10
2022-09-11T00:28:30.393Z,28.20
2022-09-11T00:29:30.371Z,26.50
2022-09-11T00:30:30.395Z,20.60
2022-09-11T00:31:30.511Z,23.70
2022-09-11T00:32:30.331Z,32.70
2022-09-11T00:33:30.322Z,26.70
2022-09-11T00:34:30.336Z,27.80
2022-09-11T00:35:30.292Z,28.40
2022-09-11T00:36:30.296Z,33.60
2022-09-11T00:37:30.272Z,23.30
2022-09-11T00:38:30.271Z,31.80
2022-09-11T00:39:30.236Z,39.70
2022-09-11T00:40:30.208Z,33.10
2022-09-11T00:41:30.207Z,38.90
2022-09-11T00:42:30.219Z,39.90
2022-09-11T00:43:30.170Z,36.40
2022-09-11T00:44:30.174Z,36.60
2022-09-11T00:45:30.206Z,34.80
2022-09-11T00:46:30.136Z,36.60
2022-09-11T00:47:30.188Z,43.10
2022-09-11T00:48:30.152Z,44.00
2022-09-11T00:49:30.107Z,51.30
2022-09-11T00:50:30.086Z,39.30
2022-09-11T00:51:30.085Z,45.60
2022-09-11T00:52:30.081Z,37.30
2022-09-11T00:53:30.075Z,26.70
2022-09-11T00:54:30.068Z,27.90
2022-09-11T00:55:30.022Z,26.90
2022-09-11T00:56:30.023Z,28.90
2022-09-11T00:57:30.023Z,32.40
2022-09-11T00:58:29.990Z,32.00
2022-09-11T00:59:29.976Z,36.70
2022-09-11T01:00:30.142Z,35.50
2022-09-11T01:01:29.947Z,37.40
2022-09-11T01:02:29.939Z,27.90
2022-09-11T01:03:29.921Z,32.40
2022-09-11T01:04:29.938Z,31.00
2022-09-11T01:05:29.898Z,29.70
2022-09-11T01:06:29.884Z,28.20
2022-09-11T01:07:29.866Z,32.50
2022-09-11T01:08:29.851Z,26.70
2022-09-11T01:09:29.830Z,33.80
2022-09-11T01:10:29.833Z,28.90
2022-09-11T01:11:29.820Z,27.50
2022-09-11T01:12:29.811Z,31.70
2022-09-11T01:13:29.776Z,26.40
2022-09-11T01:14:33.766Z,27.80
2022-09-11T01:15:29.778Z,30.00
2022-09-11T01:16:29.830Z,32.80
2022-09-11T01:17:29.740Z,24.40
2022-09-11T01:18:29.712Z,27.40
2022-09-11T01:19:29.696Z,30.50
2022-09-11T01:20:29.706Z,28.20
2022-09-11T01:21:33.925Z,28.20
2022-09-11T01:22:29.645Z,22.40
2022-09-11T01:23:29.647Z,33.90
2022-09-11T01:24:29.639Z,27.70
2022-09-11T01:25:29.610Z,30.10
2022-09-11T01:26:29.636Z,30.60
2022-09-11T01:27:29.594Z,24.70
2022-09-11T01:28:29.574Z,29.70
2022-09-11T01:29:29.556Z,28.20
2022-09-11T01:30:29.552Z,24.40
2022-09-11T01:31:29.574Z,28.10
2022-09-11T01:32:29.513Z,27.30
2022-09-11T01:33:29.508Z,27.50
2022-09-11T01:34:29.503Z,26.50
2022-09-11T01:35:29.478Z,22.40
2022-09-11T01:36:29.483Z,27.10
2022-09-11T01:37:29.599Z,27.30
2022-09-11T01:38:29.449Z,29.50
2022-09-11T01:39:29.434Z,27.30
2022-09-11T01:40:29.405Z,22.50
2022-09-11T01:41:29.393Z,28.80
2022-09-11T01:42:29.386Z,25.30
2022-09-11T01:43:29.380Z,29.00
2022-09-11T01:44:29.377Z,32.70
2022-09-11T01:45:29.377Z,30.30
2022-09-11T01:46:29.349Z,33.30
2022-09-11T01:47:29.334Z,28.40
2022-09-11T01:48:29.305Z,35.30
2022-09-11T01:49:29.382Z,41.60
2022-09-11T01:50:29.265Z,41.50
2022-09-11T01:51:29.287Z,33.40
2022-09-11T01:52:29.285Z,33.00
2022-09-11T01:53:29.262Z,37.30
2022-09-11T01:54:29.237Z,41.50
2022-09-11T01:55:29.205Z,41.60
2022-09-11T01:56:29.206Z,39.80
2022-09-11T01:57:29.170Z,46.20
2022-09-11T01:58:29.215Z,45.00
2022-09-11T01:59:29.149Z,47.20
2022-09-11T02:00:29.196Z,46.10
2022-09-11T02:01:29.136Z,46.30
2022-09-11T02:02:29.145Z,45.00
2022-09-11T02:03:29.099Z,46.00
2022-09-11T02:04:29.073Z,47.70
2022-09-11T02:05:29.081Z,49.10
2022-09-11T02:06:29.056Z,46.70
2022-09-11T02:07:29.030Z,44.60
2022-09-11T02:08:29.065Z,46.80
2022-09-11T02:09:29.018Z,49.30
2022-09-11T02:10:28.994Z,55.40
2022-09-11T02:11:28.982Z,43.70
2022-09-11T02:12:28.976Z,51.50
2022-09-11T02:13:28.940Z,46.00
2022-09-11T02:14:28.961Z,44.70
2022-09-11T02:15:28.918Z,46.10
2022-09-11T02:16:28.949Z,40.10
2022-09-11T02:17:28.895Z,48.10
2022-09-11T02:18:28.890Z,42.20
2022-09-11T02:19:28.883Z,42.40
2022-09-11T02:20:28.889Z,36.20
2022-09-11T02:21:28.869Z,40.90
2022-09-11T02:22:28.848Z,40.20
2022-09-11T02:23:28.846Z,39.10
2022-09-11T02:24:28.843Z,43.80
2022-09-11T02:25:28.809Z,43.40
2022-09-11T02:26:28.806Z,29.60
2022-09-11T02:27:28.752Z,33.30
2022-09-11T02:28:28.798Z,41.20
2022-09-11T02:29:28.741Z,31.90
2022-09-11T02:30:28.763Z,33.80
2022-09-11T02:31:28.777Z,42.40
2022-09-11T02:32:28.725Z,46.40
2022-09-11T02:33:28.693Z,41.20
2022-09-11T02:34:28.678Z,46.80
2022-09-11T02:35:28.677Z,49.70
2022-09-11T02:36:28.688Z,42.70
2022-09-11T02:37:28.639Z,32.10
2022-09-11T02:38:28.620Z,43.90
2022-09-11T02:39:28.613Z,45.50
2022-09-11T02:40:28.610Z,34.30
2022-09-11T02:41:28.568Z,45.30
2022-09-11T02:42:28.615Z,48.40
2022-09-11T02:43:28.570Z,50.20
2022-09-11T02:44:28.539Z,49.80
2022-09-11T02:45:28.577Z,51.50
2022-09-11T02:46:28.553Z,54.60
2022-09-11T02:47:28.503Z,53.00
2022-09-11T02:48:28.483Z,52.10
2022-09-11T02:49:28.479Z,51.20
2022-09-11T02:50:28.461Z,52.40
2022-09-11T02:51:28.465Z,52.70
2022-09-11T02:52:28.464Z,58.00
2022-09-11T02:53:28.409Z,56.40
2022-09-11T02:54:28.413Z,60.80
2022-09-11T02:55:28.402Z,61.10
2022-09-11T02:56:28.387Z,58.70
2022-09-11T02:57:28.377Z,60.10
2022-09-11T02:58:28.378Z,59.40
2022-09-11T02:59:28.346Z,66.90
2022-09-11T03:00:28.334Z,60.80
2022-09-11T03:01:28.371Z,62.60
2022-09-11T03:02:28.339Z,65.30
2022-09-11T03:03:28.297Z,66.60
2022-09-11T03:04:28.298Z,69.90
2022-09-11T03:05:28.268Z,69.50
2022-09-11T03:06:28.259Z,68.30
2022-09-11T03:07:28.227Z,67.20
2022-09-11T03:08:28.267Z,68.00
2022-09-11T03:09:28.209Z,67.90
2022-09-11T03:10:28.209Z,68.20
2022-09-11T03:11:28.181Z,68.50
2022-09-11T03:12:28.202Z,66.00
2022-09-11T03:13:28.172Z,80.40
2022-09-11T03:14:28.144Z,67.70
2022-09-11T03:15:28.127Z,69.50
2022-09-11T03:16:28.182Z,82.00
2022-09-11T03:17:28.130Z,76.40
2022-09-11T03:18:28.092Z,90.30
2022-09-11T03:19:28.109Z,72.50
2022-09-11T03:20:28.069Z,71.50
2022-09-11T03:21:28.048Z,73.00
2022-09-11T03:22:28.086Z,78.00
2022-09-11T03:23:28.006Z,76.90
2022-09-11T03:24:28.013Z,68.90
2022-09-11T03:25:28.004Z,92.80
2022-09-11T03:26:27.972Z,80.80
2022-09-11T03:27:27.960Z,69.70
2022-09-11T03:28:27.967Z,60.90
2022-09-11T03:29:27.968Z,81.90
2022-09-11T03:30:27.947Z,89.60
2022-09-11T03:31:27.943Z,84.60
2022-09-11T03:32:27.917Z,88.30
2022-09-11T03:33:27.883Z,68.50
2022-09-11T03:34:27.885Z,90.90
2022-09-11T03:35:27.885Z,84.90
2022-09-11T03:36:27.843Z,72.90
2022-09-11T03:37:27.830Z,77.70
2022-09-11T03:38:27.818Z,72.50
2022-09-11T03:39:27.807Z,64.80
2022-09-11T03:40:27.811Z,73.90
2022-09-11T03:41:27.788Z,77.40
2022-09-11T03:42:27.755Z,77.10
2022-09-11T03:43:27.736Z,78.60
2022-09-11T03:44:27.727Z,69.90
2022-09-11T03:45:27.770Z,83.90
2022-09-11T03:46:27.751Z,90.90
2022-09-11T03:47:27.672Z,98.80
2022-09-11T03:48:27.698Z,88.80
2022-09-11T03:49:27.681Z,78.30
2022-09-11T03:50:27.658Z,75.10
2022-09-11T03:51:27.651Z,83.60
2022-09-11T03:52:27.800Z,91.50
2022-09-11T03:53:27.613Z,89.60
2022-09-11T03:54:27.603Z,82.40
2022-09-11T03:55:27.568Z,64.40
2022-09-11T03:56:27.602Z,75.50
2022-09-11T03:57:27.555Z,78.40
2022-09-11T03:58:27.560Z,73.50
2022-09-11T03:59:27.531Z,70.70
2022-09-11T04:00:27.527Z,75.40
2022-09-11T04:01:27.492Z,84.30
2022-09-11T04:02:27.537Z,77.20
2022-09-11T04:03:27.472Z,80.00
2022-09-11T04:04:27.471Z,89.60
2022-09-11T04:05:27.484Z,91.70
2022-09-11T04:06:27.430Z,91.30
2022-09-11T04:07:27.430Z,85.10
2022-09-11T04:08:27.416Z,88.90
2022-09-11T04:09:27.405Z,83.00
2022-09-11T04:10:27.398Z,91.40
2022-09-11T04:11:27.380Z,85.60
2022-09-11T04:12:27.367Z,88.10
2022-09-11T04:13:27.341Z,90.10
2022-09-11T04:14:27.325Z,81.00
2022-09-11T04:15:27.305Z,76.10
2022-09-11T04:16:27.329Z,76.70
2022-09-11T04:17:27.312Z,78.60
2022-09-11T04:18:27.307Z,74.70
2022-09-11T04:19:27.264Z,73.80
2022-09-11T04:20:27.263Z,70.40
2022-09-11T04:21:27.221Z,67.60
2022-09-11T04:22:27.232Z,83.20
2022-09-11T04:23:27.242Z,78.50
2022-09-11T04:24:27.205Z,75.50
2022-09-11T04:25:27.194Z,82.70
2022-09-11T04:26:27.193Z,82.10
2022-09-11T04:27:27.164Z,80.60
2022-09-11T04:28:27.138Z,65.90
2022-09-11T04:29:27.150Z,83.60
2022-09-11T04:30:28.086Z,78.50
2022-09-11T04:31:27.293Z,87.20
2022-09-11T04:32:27.115Z,78.70
2022-09-11T04:33:27.093Z,69.70
2022-09-11T04:34:27.080Z,78.40
2022-09-11T04:35:27.059Z,74.30
2022-09-11T04:36:27.150Z,67.50
2022-09-11T04:37:27.049Z,73.90
2022-09-11T04:38:27.014Z,78.00
2022-09-11T04:39:27.007Z,92.00
2022-09-11T04:40:27.006Z,90.10
2022-09-11T04:41:26.985Z,77.10
2022-09-11T04:42:26.998Z,65.90
2022-09-11T04:43:26.941Z,81.40
2022-09-11T04:44:26.940Z,72.50
2022-09-11T04:45:26.922Z,68.00
2022-09-11T04:46:26.909Z,68.30
2022-09-11T04:47:26.879Z,68.60
2022-09-11T04:48:26.898Z,62.50
2022-09-11T04:49:26.865Z,71.00
2022-09-11T04:50:26.877Z,81.60
2022-09-11T04:51:28.943Z,72.90
2022-09-11T04:52:26.837Z,69.50
2022-09-11T04:53:26.807Z,79.80
2022-09-11T04:54:26.801Z,82.00
2022-09-11T04:55:26.774Z,75.50
2022-09-11T04:56:26.785Z,76.60
2022-09-11T04:57:26.754Z,82.00
2022-09-11T04:58:26.724Z,79.50
2022-09-11T04:59:26.732Z,59.60
2022-09-11T05:00:26.735Z,68.40
2022-09-11T05:01:26.704Z,67.40
2022-09-11T05:02:26.757Z,70.30
2022-09-11T05:03:26.739Z,72.90
2022-09-11T05:04:26.744Z,71.00
2022-09-11T05:05:26.641Z,70.60
2022-09-11T05:06:26.670Z,70.10
2022-09-11T05:07:26.635Z,68.70
2022-09-11T05:08:27.565Z,58.10
2022-09-11T05:09:26.596Z,62.20
2022-09-11T05:10:26.585Z,60.00
2022-09-11T05:11:26.569Z,68.30
2022-09-11T05:12:26.580Z,60.80
2022-09-11T05:13:26.561Z,63.20
2022-09-11T05:14:26.535Z,59.50
2022-09-11T05:15:26.520Z,63.30
2022-09-11T05:16:26.511Z,60.20
2022-09-11T05:17:26.486Z,68.00
2022-09-11T05:18:26.508Z,67.30
2022-09-11T05:19:26.505Z,69.00
2022-09-11T05:20:26.445Z,63.50
2022-09-11T05:21:26.449Z,59.20
2022-09-11T05:22:26.447Z,62.30
2022-09-11T05:23:26.397Z,70.30
2022-09-11T05:24:26.413Z,80.00
2022-09-11T05:25:26.376Z,68.20
2022-09-11T05:26:26.352Z,74.20
2022-09-11T05:27:26.343Z,64.60
2022-09-11T05:28:26.361Z,62.70
2022-09-11T05:29:30.386Z,62.30
2022-09-11T05:30:27.342Z,62.60
2022-09-11T05:31:26.353Z,70.40
2022-09-11T05:32:26.325Z,70.90
2022-09-11T05:33:26.294Z,66.60
2022-09-11T05:34:26.282Z,70.10
2022-09-11T05:35:29.259Z,68.90
2022-09-11T05:36:27.239Z,58.30
2022-09-11T05:37:26.243Z,58.40
2022-09-11T05:38:26.279Z,58.10
2022-09-11T05:39:26.198Z,57.40
2022-09-11T05:40:26.204Z,58.20
2022-09-11T05:41:33.678Z,56.80
2022-09-11T05:42:26.149Z,63.40
2022-09-11T05:43:26.126Z,61.70
2022-09-11T05:44:26.112Z,73.70
2022-09-11T05:45:26.179Z,72.40
2022-09-11T05:46:26.105Z,60.30
2022-09-11T05:47:26.067Z,68.40
2022-09-11T05:48:26.070Z,75.80
2022-09-11T05:49:26.070Z,72.00
2022-09-11T05:50:26.031Z,71.30
2022-09-11T05:51:26.053Z,71.30
2022-09-11T05:52:26.034Z,64.70
2022-09-11T05:53:25.996Z,64.80
2022-09-11T05:54:26.002Z,62.50
2022-09-11T05:55:25.980Z,61.50
2022-09-11T05:56:25.964Z,65.30
2022-09-11T05:57:25.943Z,67.20
2022-09-11T05:58:26.010Z,62.60
2022-09-11T05:59:25.914Z,68.40
2022-09-11T06:00:25.924Z,64.30
2022-09-11T06:01:25.954Z,61.20
2022-09-11T06:02:25.932Z,65.10
2022-09-11T06:03:25.865Z,62.90
2022-09-11T06:04:25.842Z,59.20
2022-09-11T06:05:25.849Z,55.90
2022-09-11T06:06:25.820Z,61.70
2022-09-11T06:07:25.817Z,58.70
2022-09-11T06:08:25.797Z,59.30
2022-09-11T06:09:25.780Z,59.90
2022-09-11T06:10:25.767Z,64.90
2022-09-11T06:11:25.776Z,61.20
2022-09-11T06:12:25.738Z,61.70
2022-09-11T06:13:25.731Z,60.50
2022-09-11T06:14:25.716Z,61.30
2022-09-11T06:15:45.616Z,62.10
2022-09-11T06:16:26.761Z,63.20
2022-09-11T06:17:25.699Z,65.70
2022-09-11T06:18:25.658Z,64.60
2022-09-11T06:19:25.649Z,70.70
2022-09-11T06:20:25.627Z,72.00
2022-09-11T06:21:25.629Z,72.50
2022-09-11T06:22:25.630Z,70.40
2022-09-11T06:23:25.642Z,68.70
2022-09-11T06:24:25.590Z,66.10
2022-09-11T06:25:25.566Z,60.30
2022-09-11T06:26:25.563Z,59.20
2022-09-11T06:27:25.542Z,70.00
2022-09-11T06:28:25.520Z,65.90
2022-09-11T06:29:25.532Z,65.90
2022-09-11T06:30:25.601Z,68.40
2022-09-11T06:31:25.590Z,71.00
2022-09-11T06:32:25.477Z,66.10
2022-09-11T06:33:25.472Z,66.50
2022-09-11T06:34:25.525Z,65.20
2022-09-11T06:35:25.466Z,77.90
2022-09-11T06:36:25.421Z,66.60
2022-09-11T06:37:25.407Z,74.30
2022-09-11T06:38:25.397Z,63.00
2022-09-11T06:39:25.433Z,63.70
2022-09-11T06:40:25.412Z,64.30
2022-09-11T06:41:25.355Z,76.60
2022-09-11T06:42:25.328Z,76.00
2022-09-11T06:43:25.334Z,75.10
2022-09-11T06:44:25.309Z,63.00
2022-09-11T06:45:25.340Z,69.50
2022-09-11T06:46:25.300Z,66.60
2022-09-11T06:47:25.279Z,68.20
2022-09-11T06:48:25.250Z,62.20
2022-09-11T06:49:25.251Z,64.80
2022-09-11T06:50:25.309Z,58.60
2022-09-11T06:51:25.222Z,69.20
2022-09-11T06:52:25.229Z,71.20
2022-09-11T06:53:25.184Z,61.50
2022-09-11T06:54:25.181Z,64.90
2022-09-11T06:55:25.161Z,78.50
2022-09-11T06:56:25.187Z,78.80
2022-09-11T06:57:25.133Z,71.70
2022-09-11T06:58:25.199Z,67.70
2022-09-11T06:59:25.114Z,64.50
2022-09-11T07:00:25.101Z,63.10
2022-09-11T07:01:25.238Z,61.40
2022-09-11T07:02:25.090Z,62.10
2022-09-11T07:03:25.060Z,64.60
2022-09-11T07:04:25.070Z,68.10
2022-09-11T07:05:25.036Z,64.60
2022-09-11T07:06:25.025Z,69.50
2022-09-11T07:07:25.027Z,64.70
2022-09-11T07:08:25.230Z,69.10
2022-09-11T07:09:25.009Z,68.20
2022-09-11T07:10:24.957Z,64.70
2022-09-11T07:11:24.982Z,66.50
2022-09-11T07:12:24.939Z,66.80
2022-09-11T07:13:24.946Z,64.30
2022-09-11T07:14:24.908Z,62.00
2022-09-11T07:15:24.917Z,60.60
2022-09-11T07:16:24.912Z,64.10
2022-09-11T07:17:24.966Z,57.60
2022-09-11T07:18:24.877Z,60.20
2022-09-11T07:19:24.885Z,59.40
2022-09-11T07:20:24.842Z,55.80
2022-09-11T07:21:24.811Z,65.10
2022-09-11T07:22:24.796Z,64.40
2022-09-11T07:23:24.789Z,56.50
2022-09-11T07:24:24.789Z,53.80
2022-09-11T07:25:24.775Z,58.50
2022-09-11T07:26:24.765Z,55.10
2022-09-11T07:27:24.735Z,53.90
2022-09-11T07:28:24.714Z,50.90
2022-09-11T07:29:24.728Z,51.80
2022-09-11T07:30:24.737Z,56.20
2022-09-11T07:31:24.715Z,57.10
2022-09-11T07:32:24.657Z,53.70
2022-09-11T07:33:24.673Z,52.70
2022-09-11T07:34:24.642Z,57.80
2022-09-11T07:35:24.626Z,47.20
2022-09-11T07:36:24.612Z,45.30
2022-09-11T07:37:24.616Z,45.40
2022-09-11T07:38:24.590Z,45.40
2022-09-11T07:39:24.583Z,44.10
2022-09-11T07:40:24.587Z,46.90
2022-09-11T07:41:24.558Z,49.00
2022-09-11T07:42:24.557Z,46.00
2022-09-11T07:43:24.529Z,44.30
2022-09-11T07:44:24.518Z,43.30
2022-09-11T07:45:24.725Z,41.40
2022-09-11T07:46:24.628Z,43.70
2022-09-11T07:47:24.494Z,45.10
2022-09-11T07:48:24.503Z,43.60
2022-09-11T07:49:24.482Z,43.60
2022-09-11T07:50:24.443Z,48.50
2022-09-11T07:51:24.522Z,49.60
2022-09-11T07:52:24.722Z,46.10
2022-09-11T07:53:24.412Z,46.10
2022-09-11T07:54:24.408Z,45.90
2022-09-11T07:55:24.392Z,49.80
2022-09-11T07:56:24.357Z,45.00
2022-09-11T07:57:24.351Z,46.10
2022-09-11T07:58:24.352Z,44.50
2022-09-11T07:59:24.332Z,43.90
2022-09-11T08:00:24.313Z,44.30
2022-09-11T08:01:24.373Z,44.50
2022-09-11T08:02:24.302Z,44.40
2022-09-11T08:03:24.256Z,45.00
2022-09-11T08:04:24.251Z,46.20
2022-09-11T08:05:24.235Z,46.10
2022-09-11T08:06:24.227Z,45.20
2022-09-11T08:07:24.206Z,45.70
2022-09-11T08:08:24.212Z,46.00
2022-09-11T08:09:24.194Z,46.20
2022-09-11T08:10:27.681Z,47.20
2022-09-11T08:11:24.154Z,48.10
2022-09-11T08:12:24.158Z,48.30
2022-09-11T08:13:24.118Z,46.30
2022-09-11T08:14:24.118Z,46.30
2022-09-11T08:15:24.088Z,47.10
2022-09-11T08:16:24.096Z,45.00
2022-09-11T08:17:24.065Z,45.20
2022-09-11T08:18:24.045Z,48.30
2022-09-11T08:19:24.106Z,46.10
2022-09-11T08:20:24.060Z,46.30
2022-09-11T08:21:24.010Z,43.10
2022-09-11T08:22:24.116Z,42.00
2022-09-11T08:23:23.998Z,41.00
2022-09-11T08:24:24.183Z,42.30
2022-09-11T08:25:23.953Z,41.80
2022-09-11T08:26:24.018Z,44.30
2022-09-11T08:27:23.939Z,41.60
2022-09-11T08:28:23.955Z,41.80
2022-09-11T08:29:24.036Z,41.20
2022-09-11T08:30:23.894Z,41.90
2022-09-11T08:31:23.920Z,41.20
2022-09-11T08:32:23.906Z,40.90
2022-09-11T08:33:23.842Z,41.60
2022-09-11T08:34:23.829Z,39.90
2022-09-11T08:35:23.825Z,41.10
2022-09-11T08:36:23.892Z,40.80
2022-09-11T08:37:23.807Z,40.50
2022-09-11T08:38:23.780Z,38.90
2022-09-11T08:39:23.765Z,40.50
2022-09-11T08:40:23.748Z,39.40
2022-09-11T08:41:24.027Z,40.30
2022-09-11T08:42:23.748Z,40.10
2022-09-11T08:43:23.722Z,41.90
2022-09-11T08:44:23.731Z,39.10
2022-09-11T08:45:23.757Z,39.10
2022-09-11T08:46:23.655Z,38.40
2022-09-11T08:47:23.710Z,38.10
2022-09-11T08:48:23.783Z,37.10
2022-09-11T08:49:23.662Z,39.00
2022-09-11T08:50:23.610Z,37.90
2022-09-11T08:51:23.609Z,38.50
2022-09-11T08:52:23.592Z,38.30
2022-09-11T08:53:23.602Z,37.40
2022-09-11T08:54:23.575Z,39.50
2022-09-11T08:55:23.553Z,40.10
2022-09-11T08:56:23.546Z,38.50
2022-09-11T08:57:23.533Z,38.40
2022-09-11T08:58:23.543Z,37.80
2022-09-11T08:59:23.508Z,37.60
2022-09-11T09:00:23.567Z,37.40
2022-09-11T09:01:24.130Z,35.80
2022-09-11T09:02:23.485Z,35.70
2022-09-11T09:03:23.462Z,36.10
2022-09-11T09:04:23.458Z,35.50
2022-09-11T09:05:23.427Z,36.70
2022-09-11T09:06:23.405Z,36.50
2022-09-11T09:07:23.391Z,34.70
2022-09-11T09:08:23.406Z,34.20
2022-09-11T09:09:23.438Z,35.20
2022-09-11T09:10:23.341Z,33.80
2022-09-11T09:11:23.329Z,33.00
2022-09-11T09:12:23.335Z,34.20
2022-09-11T09:13:23.321Z,34.30
2022-09-11T09:14:23.342Z,32.30
2022-09-11T09:15:26.242Z,31.90
2022-09-11T09:16:24.280Z,32.40
2022-09-11T09:17:23.267Z,33.40
2022-09-11T09:18:23.251Z,33.00
2022-09-11T09:19:23.251Z,34.30
2022-09-11T09:20:23.255Z,33.10
2022-09-11T09:21:23.211Z,31.40
2022-09-11T09:22:23.199Z,30.30
2022-09-11T09:23:23.182Z,31.40
2022-09-11T09:24:23.844Z,30.60
2022-09-11T09:25:23.174Z,30.00
2022-09-11T09:26:23.150Z,30.60
2022-09-11T09:27:23.150Z,29.90
2022-09-11T09:28:23.140Z,29.90
2022-09-11T09:29:23.092Z,29.20
2022-09-11T09:30:23.084Z,29.90
2022-09-11T09:31:23.147Z,29.90
2022-09-11T09:32:23.068Z,29.50
2022-09-11T09:33:23.059Z,29.80
2022-09-11T09:34:23.023Z,29.20
2022-09-11T09:35:23.024Z,31.00
2022-09-11T09:36:23.011Z,31.00
2022-09-11T09:37:22.992Z,30.80
2022-09-11T09:38:26.893Z,30.30
2022-09-11T09:39:22.970Z,28.60
2022-09-11T09:40:22.988Z,28.90
2022-09-11T09:41:22.960Z,28.60
2022-09-11T09:42:22.932Z,29.50
2022-09-11T09:43:22.902Z,27.90
2022-09-11T09:44:22.903Z,26.70
2022-09-11T09:45:22.882Z,28.30
2022-09-11T09:46:22.872Z,27.30
2022-09-11T09:47:22.881Z,28.00
2022-09-11T09:48:22.862Z,28.00
2022-09-11T09:49:22.866Z,28.80
2022-09-11T09:50:22.817Z,27.30
2022-09-11T09:51:22.804Z,27.60
2022-09-11T09:52:22.824Z,27.40
2022-09-11T09:53:22.811Z,27.50
2022-09-11T09:54:22.752Z,26.90
2022-09-11T09:55:22.752Z,25.90
2022-09-11T09:56:22.739Z,26.00
2022-09-11T09:57:22.756Z,25.60
2022-09-11T09:58:22.714Z,26.00
2022-09-11T09:59:22.720Z,27.50
2022-09-11T10:00:22.967Z,28.00
2022-09-11T10:01:22.796Z,27.30
2022-09-11T10:02:22.694Z,27.60
2022-09-11T10:03:22.660Z,28.40
2022-09-11T10:04:22.640Z,29.40
2022-09-11T10:05:22.888Z,31.00
2022-09-11T10:06:22.717Z,30.10
2022-09-11T10:07:22.608Z,30.70
2022-09-11T10:08:22.581Z,29.50
2022-09-11T10:09:22.554Z,29.80
2022-09-11T10:10:22.581Z,29.40
2022-09-11T10:11:22.540Z,29.20
2022-09-11T10:12:22.540Z,28.90
2022-09-11T10:13:22.515Z,30.00
2022-09-11T10:14:47.201Z,29.60
2022-09-11T10:15:23.517Z,28.90
2022-09-11T10:16:22.548Z,28.40
2022-09-11T10:17:22.467Z,31.10
2022-09-11T10:18:22.437Z,37.40
2022-09-11T10:19:22.435Z,34.40
2022-09-11T10:20:22.446Z,37.80
2022-09-11T10:21:22.435Z,38.00
2022-09-11T10:22:22.390Z,35.30
2022-09-11T10:23:22.369Z,35.70
2022-09-11T10:24:22.377Z,35.10
2022-09-11T10:25:22.338Z,35.10
2022-09-11T10:26:22.340Z,35.20
2022-09-11T10:27:23.660Z,38.10
2022-09-11T10:28:22.349Z,39.90
2022-09-11T10:29:22.291Z,39.10
2022-09-11T10:30:22.288Z,39.80
2022-09-11T10:31:22.341Z,37.90
2022-09-11T10:32:22.258Z,37.80
2022-09-11T10:33:22.270Z,36.80
2022-09-11T10:34:22.235Z,37.40
2022-09-11T10:35:22.214Z,37.40
2022-09-11T10:36:22.211Z,39.00
2022-09-11T10:37:22.192Z,41.30
2022-09-11T10:38:22.174Z,35.50
2022-09-11T10:39:22.183Z,37.50
2022-09-11T10:40:22.163Z,36.90
2022-09-11T10:41:22.198Z,39.40
2022-09-11T10:42:22.119Z,42.30
2022-09-11T10:43:22.120Z,40.70
2022-09-11T10:44:22.125Z,38.30
2022-09-11T10:45:22.105Z,37.70
2022-09-11T10:46:22.076Z,40.00
2022-09-11T10:47:22.065Z,38.40
2022-09-11T10:48:22.049Z,37.70
2022-09-11T10:49:22.037Z,37.80
2022-09-11T10:50:22.016Z,41.00
2022-09-11T10:51:22.002Z,39.10
2022-09-11T10:52:21.999Z,40.10
2022-09-11T10:53:21.995Z,37.90
2022-09-11T10:54:21.990Z,34.30
2022-09-11T10:55:21.932Z,34.30
2022-09-11T10:56:21.927Z,33.80
2022-09-11T10:57:21.918Z,32.00
2022-09-11T10:58:21.909Z,32.40
2022-09-11T10:59:21.916Z,32.30
2022-09-11T11:00:21.922Z,32.30
2022-09-11T11:01:21.928Z,30.70
2022-09-11T11:02:21.880Z,33.10
2022-09-11T11:03:21.834Z,38.00
2022-09-11T11:04:21.831Z,38.70
2022-09-11T11:05:21.825Z,38.30
2022-09-11T11:06:21.829Z,41.70
2022-09-11T11:07:21.793Z,41.50
2022-09-11T11:08:21.773Z,41.70
2022-09-11T11:09:21.754Z,42.40
2022-09-11T11:10:21.802Z,39.50
2022-09-11T11:11:21.743Z,40.70
2022-09-11T11:12:21.739Z,40.70
2022-09-11T11:13:21.715Z,40.30
2022-09-11T11:14:21.705Z,40.20
2022-09-11T11:15:21.683Z,40.90
2022-09-11T11:16:21.761Z,41.80
2022-09-11T11:17:21.645Z,40.60
2022-09-11T11:18:21.697Z,41.10
2022-09-11T11:19:21.633Z,39.60
2022-09-11T11:20:21.615Z,41.00
2022-09-11T11:21:21.597Z,37.30
2022-09-11T11:22:21.608Z,37.80
2022-09-11T11:23:21.575Z,37.90
2022-09-11T11:24:21.568Z,37.90
2022-09-11T11:25:21.550Z,38.30
2022-09-11T11:26:21.538Z,39.40
2022-09-11T11:27:21.630Z,39.20
2022-09-11T11:28:21.573Z,38.10
2022-09-11T11:29:21.529Z,36.20
2022-09-11T11:30:21.480Z,37.30
2022-09-11T11:31:21.540Z,37.50
2022-09-11T11:32:21.472Z,37.60
2022-09-11T11:33:21.458Z,40.10
2022-09-11T11:34:21.447Z,39.20
2022-09-11T11:35:21.422Z,39.90
2022-09-11T11:36:21.404Z,38.20
2022-09-11T11:37:21.395Z,36.70
2022-09-11T11:38:21.374Z,36.70
2022-09-11T11:39:21.368Z,34.90
2022-09-11T11:40:21.388Z,36.40
2022-09-11T11:41:21.335Z,35.30
2022-09-11T11:42:21.325Z,34.90
2022-09-11T11:43:21.315Z,35.70
2022-09-11T11:44:21.294Z,33.80
2022-09-11T11:45:21.287Z,33.40
2022-09-11T11:46:21.301Z,34.50
2022-09-11T11:47:21.256Z,35.40
2022-09-11T11:48:21.244Z,35.10
2022-09-11T11:49:21.247Z,33.00
2022-09-11T11:50:21.226Z,30.50
2022-09-11T11:51:21.240Z,30.30
2022-09-11T11:52:28.761Z,30.50
2022-09-11T11:53:21.183Z,31.00
2022-09-11T11:54:21.185Z,31.80
2022-09-11T11:55:21.176Z,29.40
2022-09-11T11:56:21.178Z,32.80
2022-09-11T11:57:21.141Z,32.40
2022-09-11T11:58:21.122Z,31.10
2022-09-11T11:59:21.092Z,32.50
2022-09-11T12:00:21.097Z,33.20
2022-09-11T12:01:21.097Z,36.50
2022-09-11T12:02:21.111Z,37.10
2022-09-11T12:03:21.100Z,34.50
2022-09-11T12:04:21.052Z,34.30
2022-09-11T12:05:21.022Z,35.10
2022-09-11T12:06:21.018Z,33.00
2022-09-11T12:07:21.000Z,34.20
2022-09-11T12:08:21.013Z,36.20
2022-09-11T12:09:21.006Z,35.40
2022-09-11T12:10:20.946Z,34.70
2022-09-11T12:11:20.979Z,34.00
2022-09-11T12:12:20.956Z,34.80
2022-09-11T12:13:20.931Z,33.30
2022-09-11T12:14:20.904Z,32.10
2022-09-11T12:15:20.895Z,29.50
2022-09-11T12:16:20.954Z,28.50
2022-09-11T12:17:20.851Z,27.30
2022-09-11T12:18:20.893Z,27.90
2022-09-11T12:19:21.331Z,28.20
2022-09-11T12:20:20.821Z,27.60
2022-09-11T12:21:20.812Z,26.50
2022-09-11T12:22:20.811Z,26.00
2022-09-11T12:23:20.777Z,27.30
2022-09-11T12:24:20.787Z,26.20
2022-09-11T12:25:20.771Z,27.70
2022-09-11T12:26:20.737Z,28.00
2022-09-11T12:27:20.802Z,27.00
2022-09-11T12:28:20.712Z,26.90
2022-09-11T12:29:20.718Z,25.20
2022-09-11T12:30:20.737Z,24.20
2022-09-11T12:31:20.714Z,24.90
2022-09-11T12:32:20.688Z,23.70
2022-09-11T12:33:20.683Z,24.00
2022-09-11T12:34:20.649Z,24.20
2022-09-11T12:35:20.656Z,23.40
2022-09-11T12:36:20.664Z,22.50
2022-09-11T12:37:20.596Z,21.60
2022-09-11T12:38:20.598Z,21.40
2022-09-11T12:39:20.582Z,21.10
2022-09-11T12:40:20.558Z,19.90
2022-09-11T12:41:20.542Z,20.40
2022-09-11T12:42:20.555Z,19.60
2022-09-11T12:43:20.594Z,25.10
2022-09-11T12:44:20.530Z,25.50
2022-09-11T12:45:20.485Z,23.30
2022-09-11T12:46:20.491Z,21.80
2022-09-11T12:47:20.477Z,22.00
2022-09-11T12:48:20.507Z,20.90
2022-09-11T12:49:23.011Z,20.90
2022-09-11T12:50:20.423Z,20.60
2022-09-11T12:51:20.416Z,19.30
2022-09-11T12:52:20.441Z,20.50